Time;durP1;ratioP1;P1;durP2;ratioP2;P2;SDS_P1;SDS_P2;PMS_P1;PMS_P2;Temp;Humidity;BMP_temperature;BMP_pressure;BME280_temperature;BME280_humidity;BME280_pressure;Samples;Min_cycle;Max_cycle;Signal;HPM_P1;HPM_P2
2023/07/01 04:22:32;;;;;;;7.93;4.18;;;;;;;14.42;100.00;99762.00;5089678;28;20332;-70
2023/07/01 04:24:58;;;;;;;7.28;3.83;;;;;;;14.44;100.00;99762.59;5089571;28;20044;-70
2023/07/01 04:27:23;;;;;;;9.35;3.67;;;;;;;14.45;100.00;99761.56;5089429;28;20048;-70
2023/07/01 04:29:49;;;;;;;6.45;3.38;;;;;;;14.52;100.00;99762.41;5088998;28;20036;-70
2023/07/01 04:32:14;;;;;;;5.68;3.60;;;;;;;14.59;100.00;99763.19;5089427;28;20041;-70
2023/07/01 04:34:39;;;;;;;7.22;3.40;;;;;;;14.63;100.00;99769.78;5089246;28;20047;-71
2023/07/01 04:37:05;;;;;;;4.03;2.58;;;;;;;14.68;100.00;99755.78;5089218;28;20040;-71
2023/07/01 04:39:30;;;;;;;7.47;3.40;;;;;;;14.74;100.00;99762.97;5089049;28;20028;-69
2023/07/01 04:41:55;;;;;;;4.78;2.90;;;;;;;14.77;100.00;99763.34;5089122;28;20050;-69
2023/07/01 04:44:23;;;;;;;9.00;3.50;;;;;;;14.85;100.00;99760.41;5089171;28;20127;-68
2023/07/01 04:46:50;;;;;;;4.30;2.80;;;;;;;14.96;100.00;99758.13;5087930;28;20055;-69
2023/07/01 04:49:15;;;;;;;5.28;3.15;;;;;;;15.01;100.00;99763.66;5088744;28;20425;-67
2023/07/01 04:51:41;;;;;;;3.55;2.25;;;;;;;15.10;100.00;99760.50;5089081;28;20036;-69
2023/07/01 04:54:06;;;;;;;2.45;2.08;;;;;;;15.21;100.00;99759.03;5089026;28;20037;-69
2023/07/01 04:56:32;;;;;;;5.35;2.35;;;;;;;15.32;100.00;99758.34;5088845;28;20097;-68
2023/07/01 04:58:57;;;;;;;5.03;2.35;;;;;;;15.37;100.00;99761.19;5088598;28;20047;-70
2023/07/01 05:01:23;;;;;;;4.15;2.42;;;;;;;15.45;100.00;99760.94;5088758;28;20044;-69
2023/07/01 05:03:48;;;;;;;2.85;1.95;;;;;;;15.53;100.00;99746.44;5088829;28;20162;-71
2023/07/01 05:06:14;;;;;;;3.95;2.10;;;;;;;15.64;100.00;99759.16;5088657;28;20048;-68
2023/07/01 05:08:39;;;;;;;5.20;2.38;;;;;;;15.71;100.00;99759.97;5088491;28;20047;-71
2023/07/01 05:11:05;;;;;;;4.03;2.20;;;;;;;15.77;100.00;99763.63;5088575;28;20098;-69
2023/07/01 05:13:30;;;;;;;5.57;2.05;;;;;;;15.79;100.00;99753.50;5088580;28;20044;-70
2023/07/01 05:15:56;;;;;;;5.15;1.90;;;;;;;15.94;99.39;99759.34;5088477;28;20102;-69
2023/07/01 05:18:21;;;;;;;3.50;2.10;;;;;;;16.01;98.27;99760.13;5088278;28;20086;-70
2023/07/01 05:20:47;;;;;;;2.72;1.60;;;;;;;16.08;98.28;99761.91;5088599;28;20047;-68
2023/07/01 05:23:12;;;;;;;3.33;2.13;;;;;;;16.17;97.50;99757.91;5088434;28;20040;-67
2023/07/01 05:25:38;;;;;;;4.30;2.50;;;;;;;16.24;97.07;99761.38;5088327;28;20040;-69
2023/07/01 05:28:04;;;;;;;2.42;1.60;;;;;;;16.34;96.23;99752.78;5088255;28;20071;-57
2023/07/01 05:30:29;;;;;;;2.15;1.48;;;;;;;16.41;95.41;99751.66;5087861;28;20047;-54
2023/07/01 05:32:55;;;;;;;2.75;1.80;;;;;;;16.50;94.01;99750.34;5080205;28;20438;-56
2023/07/01 05:35:20;;;;;;;3.10;2.15;;;;;;;16.59;94.92;99750.84;5074720;28;20468;-55
2023/07/01 05:37:45;;;;;;;2.83;1.60;;;;;;;16.67;94.58;99752.41;5074634;28;20036;-55
2023/07/01 05:40:12;;;;;;;5.18;1.88;;;;;;;16.74;94.32;99756.69;5074223;28;20044;-58
2023/07/01 05:42:38;;;;;;;2.38;1.80;;;;;;;16.82;94.78;99758.25;5074559;28;20115;-55
2023/07/01 05:45:04;;;;;;;2.95;1.50;;;;;;;16.89;93.78;99756.34;5074472;28;20468;-54
2023/07/01 05:47:30;;;;;;;3.10;1.88;;;;;;;16.99;92.57;99750.41;5074495;28;20089;-56
2023/07/01 05:49:55;;;;;;;4.40;2.25;;;;;;;17.02;92.17;99742.72;5074090;28;20123;-59
2023/07/01 05:52:21;;;;;;;2.78;1.77;;;;;;;17.23;88.60;99751.31;5074224;28;20044;-58
2023/07/01 05:54:46;;;;;;;1.40;1.30;;;;;;;17.22;89.06;99755.06;5074360;28;20045;-59
2023/07/01 05:57:12;;;;;;;2.03;1.67;;;;;;;17.24;87.55;99753.78;5074148;28;20086;-58
2023/07/01 05:59:37;;;;;;;3.17;1.90;;;;;;;17.27;88.83;99744.41;5073874;28;20040;-57
2023/07/01 06:02:03;;;;;;;2.20;1.85;;;;;;;17.31;88.56;99749.13;5074278;28;20032;-57
2023/07/01 06:04:28;;;;;;;2.42;1.50;;;;;;;17.32;88.69;99748.06;5074420;28;20124;-57
2023/07/01 06:06:53;;;;;;;2.15;1.52;;;;;;;17.32;86.87;99741.88;5074007;28;20097;-59
2023/07/01 06:09:19;;;;;;;5.72;2.53;;;;;;;17.33;86.21;99744.31;5073812;28;20063;-57
2023/07/01 06:11:44;;;;;;;2.05;1.50;;;;;;;17.48;87.27;99746.63;5073938;28;20094;-57
2023/07/01 06:14:09;;;;;;;2.38;1.75;;;;;;;17.55;85.75;99744.63;5073714;28;20032;-58
2023/07/01 06:16:35;;;;;;;2.10;1.90;;;;;;;17.61;86.36;99746.41;5073898;28;20048;-58
2023/07/01 06:19:00;;;;;;;4.25;2.00;;;;;;;17.65;85.06;99741.38;5073742;28;20532;-55
2023/07/01 06:21:26;;;;;;;4.00;2.35;;;;;;;17.76;85.37;99750.56;5073800;28;20587;-59
2023/07/01 06:23:57;;;;;;;5.07;2.00;;;;;;;17.80;86.05;99746.31;5073882;28;20123;-60
2023/07/01 06:26:23;;;;;;;3.00;1.80;;;;;;;17.85;85.83;99751.84;5073740;28;20037;-59
2023/07/01 06:28:48;;;;;;;3.15;1.65;;;;;;;17.94;85.79;99750.47;5073260;28;20086;-58
2023/07/01 06:31:13;;;;;;;2.97;1.70;;;;;;;17.86;82.33;99745.41;5073643;28;20401;-58
2023/07/01 06:33:39;;;;;;;4.07;1.70;;;;;;;17.87;82.24;99744.38;5073810;28;20055;-58
2023/07/01 06:36:05;;;;;;;2.40;1.60;;;;;;;17.88;82.78;99746.00;5073688;28;20048;-58
2023/07/01 06:38:31;;;;;;;4.28;1.90;;;;;;;17.90;82.98;99735.81;5073262;28;20036;-57
2023/07/01 06:40:56;;;;;;;3.58;1.83;;;;;;;18.04;81.93;99739.91;5073464;28;20047;-54
2023/07/01 06:43:22;;;;;;;2.40;1.60;;;;;;;18.12;80.21;99738.72;5073671;28;20167;-59
2023/07/01 06:45:48;;;;;;;3.78;1.98;;;;;;;18.28;80.19;99738.03;5072554;28;20405;-57
2023/07/01 06:48:13;;;;;;;1.40;1.30;;;;;;;18.46;79.12;99731.69;5073226;28;20036;-57
2023/07/01 06:50:38;;;;;;;2.03;1.48;;;;;;;18.48;78.76;99724.19;5073218;28;20481;-58
2023/07/01 06:53:04;;;;;;;2.38;1.55;;;;;;;18.60;76.02;99716.88;5073169;28;20040;-57
2023/07/01 06:55:30;;;;;;;2.30;1.80;;;;;;;18.82;74.59;99729.75;5073202;28;20036;-54
2023/07/01 06:57:55;;;;;;;2.00;1.48;;;;;;;18.85;74.21;99715.81;5055366;28;20115;-52
2023/07/01 07:00:21;;;;;;;1.83;1.27;;;;;;;18.94;74.20;99725.13;5072749;28;20036;-57
2023/07/01 07:02:46;;;;;;;2.25;1.40;;;;;;;19.06;70.87;99720.50;5072911;28;20115;-66
2023/07/01 07:05:12;;;;;;;3.53;1.58;;;;;;;19.20;68.33;99721.84;5072841;28;20050;-67
2023/07/01 07:07:37;;;;;;;2.63;1.60;;;;;;;19.27;64.76;99724.41;5072969;28;20392;-66
2023/07/01 07:10:03;;;;;;;2.38;1.48;;;;;;;19.22;66.04;99727.00;5072563;28;20493;-67
2023/07/01 07:12:29;;;;;;;1.60;1.23;;;;;;;19.31;64.95;99722.06;5072624;28;20055;-65
2023/07/01 07:14:54;;;;;;;3.25;1.45;;;;;;;19.34;66.04;99718.84;5072778;28;20475;-66
2023/07/01 07:17:19;;;;;;;3.08;1.63;;;;;;;19.44;63.82;99719.03;5072738;28;20041;-67
2023/07/01 07:19:45;;;;;;;3.20;1.50;;;;;;;19.53;65.70;99702.19;5072375;28;20032;-66
2023/07/01 07:22:10;;;;;;;3.85;1.35;;;;;;;19.56;66.61;99706.28;5072597;28;20432;-66
2023/07/01 07:24:36;;;;;;;1.80;1.38;;;;;;;19.70;64.38;99702.22;5072557;28;20639;-66
2023/07/01 07:27:02;;;;;;;4.90;1.48;;;;;;;19.87;62.25;99709.47;5072279;28;20098;-66
2023/07/01 07:29:28;;;;;;;1.90;1.33;;;;;;;19.86;61.54;99710.56;5072246;28;20041;-65
2023/07/01 07:31:55;;;;;;;1.43;1.27;;;;;;;19.92;60.16;99698.75;5072426;28;20040;-63
2023/07/01 07:34:21;;;;;;;1.92;1.25;;;;;;;19.97;59.93;99696.13;5072407;28;20028;-64
2023/07/01 07:36:46;;;;;;;1.60;1.05;;;;;;;19.98;59.71;99690.47;5037225;28;20037;-63
2023/07/01 07:39:13;;;;;;;1.25;1.10;;;;;;;20.09;60.73;99683.34;5071991;28;20035;-64
2023/07/01 07:41:39;;;;;;;1.55;1.10;;;;;;;20.20;58.88;99674.28;5072128;28;20048;-63
2023/07/01 07:44:05;;;;;;;1.67;1.20;;;;;;;20.32;57.78;99669.56;5072175;28;20504;-64
2023/07/01 07:46:32;;;;;;;2.67;1.30;;;;;;;20.29;57.46;99674.69;5054206;28;20041;-64
2023/07/01 07:48:57;;;;;;;2.80;1.58;;;;;;;20.44;57.15;99676.75;5071948;28;20504;-63
2023/07/01 07:51:22;;;;;;;2.78;1.40;;;;;;;20.41;57.49;99686.22;5072095;28;20127;-64
2023/07/01 07:53:48;;;;;;;3.10;1.70;;;;;;;20.43;57.79;99683.25;5072136;28;20048;-63
2023/07/01 07:56:13;;;;;;;3.55;1.60;;;;;;;20.46;58.99;99686.28;5071652;28;20068;-64
2023/07/01 07:58:38;;;;;;;2.78;1.48;;;;;;;20.48;58.83;99677.94;5071781;28;20401;-64
2023/07/01 08:01:04;;;;;;;2.15;1.23;;;;;;;20.52;60.31;99687.16;5072035;28;20033;-64
2023/07/01 08:03:29;;;;;;;2.45;1.48;;;;;;;20.43;57.37;99681.34;5072023;28;20472;-64
2023/07/01 08:05:55;;;;;;;3.10;1.40;;;;;;;20.38;57.60;99675.88;5071955;28;20031;-64
2023/07/01 08:08:20;;;;;;;1.88;1.42;;;;;;;20.40;58.36;99681.03;5071751;28;20511;-63
2023/07/01 08:10:45;;;;;;;2.60;1.70;;;;;;;20.44;58.28;99669.47;5071700;28;20536;-65
2023/07/01 08:13:12;;;;;;;2.05;1.50;;;;;;;20.49;59.66;99674.97;5054151;28;20044;-64
2023/07/01 08:15:38;;;;;;;2.90;1.95;;;;;;;20.58;59.80;99676.16;5071991;28;20048;-65
2023/07/01 08:18:04;;;;;;;2.30;1.88;;;;;;;20.66;58.88;99671.38;5071864;28;20040;-64
2023/07/01 08:20:29;;;;;;;4.70;2.15;;;;;;;20.64;60.69;99657.28;5071689;28;20040;-65
2023/07/01 08:22:55;;;;;;;4.97;2.72;;;;;;;20.64;59.44;99652.69;5071903;28;20045;-63
2023/07/01 08:25:20;;;;;;;3.40;2.00;;;;;;;20.72;60.42;99652.22;5071693;28;20052;-64
2023/07/01 08:27:45;;;;;;;3.22;2.00;;;;;;;20.92;58.81;99642.69;5071825;28;20098;-64
2023/07/01 08:30:12;;;;;;;2.88;1.77;;;;;;;21.18;58.73;99649.97;5071539;28;20101;-63
2023/07/01 08:32:39;;;;;;;3.25;1.98;;;;;;;21.34;57.10;99640.94;5071862;28;20041;-64
2023/07/01 08:35:04;;;;;;;2.88;1.35;;;;;;;21.57;57.06;99647.06;5071773;28;20076;-64
2023/07/01 08:37:30;;;;;;;4.25;1.63;;;;;;;21.68;54.07;99646.09;5071687;28;20056;-63
2023/07/01 08:39:55;;;;;;;3.50;1.38;;;;;;;21.76;55.36;99639.34;5071330;28;20507;-64
2023/07/01 08:42:27;;;;;;;2.72;1.40;;;;;;;21.74;53.11;99638.81;5071714;28;20044;-63
2023/07/01 08:44:53;;;;;;;1.88;1.05;;;;;;;21.87;52.81;99646.47;5071834;28;20036;-64
2023/07/01 08:47:19;;;;;;;2.42;1.20;;;;;;;21.85;52.23;99633.19;5071639;28;20047;-63
2023/07/01 08:49:50;;;;;;;2.22;1.23;;;;;;;21.94;52.88;99628.91;5071402;28;20091;-64
2023/07/01 08:52:19;;;;;;;1.48;1.25;;;;;;;22.19;53.10;99627.44;5053641;28;20033;-64
2023/07/01 08:54:45;;;;;;;1.90;1.20;;;;;;;22.09;52.23;99622.75;5071550;28;20393;-63
2023/07/01 08:57:11;;;;;;;2.10;1.20;;;;;;;22.05;53.13;99631.69;5071479;28;20084;-64
2023/07/01 08:59:37;;;;;;;3.28;1.30;;;;;;;22.08;52.69;99623.81;5071308;28;20101;-63
2023/07/01 09:02:03;;;;;;;2.20;1.10;;;;;;;22.31;52.83;99625.31;5071473;28;20028;-62
2023/07/01 09:04:29;;;;;;;1.77;1.27;;;;;;;22.41;51.25;99617.19;5071492;28;20069;-64
2023/07/01 09:06:54;;;;;;;1.45;1.23;;;;;;;22.41;51.84;99617.19;5071439;28;20035;-65
2023/07/01 09:09:19;;;;;;;3.42;1.27;;;;;;;22.42;50.95;99612.59;5074903;28;20044;-64
2023/07/01 09:11:47;;;;;;;2.15;1.40;;;;;;;22.51;52.56;99611.00;5075148;28;20033;-62
2023/07/01 09:14:13;;;;;;;2.65;1.10;;;;;;;22.37;50.49;99605.28;5075195;28;20036;-64
2023/07/01 09:16:39;;;;;;;1.13;1.02;;;;;;;22.30;48.75;99602.00;5075043;28;20040;-64
2023/07/01 09:19:06;;;;;;;2.60;1.20;;;;;;;22.32;49.49;99613.38;5074831;28;20040;-63
2023/07/01 09:21:32;;;;;;;3.60;1.30;;;;;;;22.36;50.21;99603.63;5074790;28;20482;-65
2023/07/01 09:24:01;;;;;;;1.38;1.10;;;;;;;22.32;50.69;99601.72;5074965;28;20039;-63
2023/07/01 09:26:30;;;;;;;1.63;1.30;;;;;;;22.11;51.17;99595.41;5074787;28;20122;-64
2023/07/01 09:28:57;;;;;;;2.17;1.42;;;;;;;22.27;51.58;99596.25;5074603;28;20032;-63
2023/07/01 09:31:24;;;;;;;2.78;1.67;;;;;;;22.16;51.02;99598.09;5074614;28;20045;-63
2023/07/01 09:34:01;;;;;;;2.40;1.15;;;;;;;22.15;52.03;99591.88;5074743;28;20047;-64
2023/07/01 09:36:27;;;;;;;1.58;1.20;;;;;;;22.14;53.01;99592.16;5074649;28;20032;-64
2023/07/01 09:38:54;;;;;;;1.77;1.35;;;;;;;22.26;53.33;99597.34;5074356;28;20455;-65
2023/07/01 09:41:26;;;;;;;2.00;1.10;;;;;;;22.29;51.75;99602.22;5074541;28;20474;-64
2023/07/01 09:43:57;;;;;;;2.38;1.50;;;;;;;22.22;51.36;99594.34;5074498;28;20550;-64
2023/07/01 09:46:24;;;;;;;2.13;1.63;;;;;;;22.36;49.29;99592.75;5074432;28;20093;-65
2023/07/01 09:48:56;;;;;;;2.15;1.33;;;;;;;22.56;48.71;99583.88;5074139;28;20041;-64
2023/07/01 09:51:26;;;;;;;2.72;1.65;;;;;;;22.65;50.04;99592.31;5074545;28;20045;-64
2023/07/01 09:53:52;;;;;;;1.58;1.13;;;;;;;22.56;48.23;99585.75;5074359;28;20056;-64
2023/07/01 09:56:19;;;;;;;2.55;1.60;;;;;;;22.59;48.57;99579.81;5074239;28;20404;-64
2023/07/01 09:58:46;;;;;;;3.03;1.63;;;;;;;22.55;48.53;99589.56;5074019;28;20039;-64
2023/07/01 10:01:17;;;;;;;1.83;1.15;;;;;;;22.41;48.70;99576.50;5074157;28;20033;-64
2023/07/01 10:03:44;;;;;;;2.47;1.58;;;;;;;22.54;51.38;99567.03;5074165;28;20036;-65
2023/07/01 10:06:10;;;;;;;3.22;1.80;;;;;;;22.54;50.37;99575.19;5074065;28;20040;-64
2023/07/01 10:08:36;;;;;;;2.85;1.63;;;;;;;22.64;49.34;99568.97;5073855;28;20029;-64
2023/07/01 10:11:04;;;;;;;2.97;1.67;;;;;;;22.90;48.18;99559.00;5074119;28;20174;-65
2023/07/01 10:13:33;;;;;;;2.08;1.33;;;;;;;23.11;49.25;99568.75;5073918;28;20086;-65
2023/07/01 10:16:02;;;;;;;2.53;2.08;;;;;;;23.38;50.35;99571.19;5073898;28;20040;-65
2023/07/01 10:18:30;;;;;;;1.90;1.33;;;;;;;23.67;47.59;99554.31;5073703;28;20481;-65
2023/07/01 10:21:24;;;;;;;2.00;1.27;;;;;;;24.01;46.71;99565.38;5073833;28;20469;-64
2023/07/01 10:23:51;;;;;;;3.42;1.30;;;;;;;24.08;46.75;99555.00;5073836;28;20029;-65
2023/07/01 10:26:37;;;;;;;1.08;0.95;;;;;;;24.25;47.07;99552.72;5073744;28;20063;-65
2023/07/01 10:29:28;;;;;;;2.40;1.20;;;;;;;24.23;46.04;99556.81;5073484;28;20127;-65
2023/07/01 10:32:09;;;;;;;1.35;0.95;;;;;;;24.18;45.49;99551.41;5073661;28;20032;-64
2023/07/01 10:34:53;;;;;;;1.92;1.23;;;;;;;24.09;45.89;99559.34;5073614;28;20040;-65
2023/07/01 10:37:22;;;;;;;2.75;1.33;;;;;;;23.97;45.10;99565.09;5073449;28;20033;-65
2023/07/01 10:39:48;;;;;;;2.70;1.30;;;;;;;23.72;43.25;99560.53;5073290;28;20051;-65
2023/07/01 10:42:36;;;;;;;1.63;1.17;;;;;;;23.26;44.74;99576.91;5073583;28;20040;-65
2023/07/01 10:45:11;;;;;;;2.00;1.23;;;;;;;23.37;46.75;99561.41;5073446;28;20119;-65
2023/07/01 10:47:37;;;;;;;1.48;1.23;;;;;;;23.15;45.27;99563.63;5073412;28;20382;-65
2023/07/01 10:50:10;;;;;;;1.58;1.30;;;;;;;22.70;45.88;99565.19;5073173;28;20123;-65
2023/07/01 10:53:04;;;;;;;2.33;1.25;;;;;;;22.73;46.47;99565.44;5073172;28;20051;-65
2023/07/01 10:55:49;;;;;;;1.50;1.20;;;;;;;22.62;46.33;99558.38;5073057;28;20048;-65
2023/07/01 10:58:24;;;;;;;2.60;1.38;;;;;;;22.58;46.84;99564.63;5072964;28;20105;-65
2023/07/01 11:00:52;;;;;;;2.65;1.25;;;;;;;22.46;46.96;99541.25;5073010;28;20033;-55
2023/07/01 11:03:32;;;;;;;2.15;1.33;;;;;;;22.66;46.92;99547.78;5073043;28;20037;-65
2023/07/01 11:06:03;;;;;;;1.63;1.20;;;;;;;22.64;48.84;99544.53;5072877;28;20063;-64
2023/07/01 11:08:30;;;;;;;2.60;1.15;;;;;;;22.78;48.81;99542.13;5072624;28;20036;-64
2023/07/01 11:10:56;;;;;;;3.88;1.98;;;;;;;22.77;49.77;99544.03;5072916;28;20435;-64
2023/07/01 11:13:23;;;;;;;2.45;1.48;;;;;;;22.85;49.13;99543.47;5072841;28;20036;-64
2023/07/01 11:16:05;;;;;;;3.42;1.55;;;;;;;22.74;49.34;99544.53;5072743;28;20131;-64
2023/07/01 11:18:45;;;;;;;1.98;1.27;;;;;;;22.65;50.18;99551.59;5072515;28;20059;-65
2023/07/01 11:21:12;;;;;;;2.03;1.42;;;;;;;22.66;51.98;99548.59;5072562;28;20041;-64
2023/07/01 11:23:42;;;;;;;1.27;0.93;;;;;;;22.54;50.75;99545.31;5072576;28;20044;-65
2023/07/01 11:26:07;;;;;;;2.78;1.52;;;;;;;22.41;51.70;99546.66;5072636;28;20401;-65
2023/07/01 11:28:33;;;;;;;3.00;1.20;;;;;;;22.48;51.65;99549.13;5072281;28;20024;-64
2023/07/01 11:31:18;;;;;;;1.65;1.20;;;;;;;22.35;51.69;99536.88;5072003;28;20072;-65
2023/07/01 11:33:54;;;;;;;4.10;1.60;;;;;;;22.30;51.51;99538.75;5072544;28;20111;-65
2023/07/01 11:36:35;;;;;;;1.60;1.30;;;;;;;22.26;51.22;99527.63;5072363;28;20044;-64
2023/07/01 11:39:09;;;;;;;2.05;1.55;;;;;;;22.29;50.16;99531.69;5072129;28;20547;-64
2023/07/01 11:41:35;;;;;;;1.95;1.20;;;;;;;22.24;49.60;99529.00;5072335;28;20127;-65
2023/07/01 11:44:02;;;;;;;1.98;1.10;;;;;;;22.47;49.51;99521.16;5072354;28;20093;-65
2023/07/01 11:46:38;;;;;;;1.92;0.93;;;;;;;22.44;48.83;99518.19;5072255;28;20040;-65
2023/07/01 11:49:15;;;;;;;1.67;1.08;;;;;;;22.46;49.03;99514.13;5072178;28;20042;-64
2023/07/01 11:51:42;;;;;;;;;;;;;;;22.43;49.01;99517.38;5072560;28;20044;-65
2023/07/01 11:54:08;;;;;;;2.05;1.27;;;;;;;22.36;48.91;99514.09;5072276;28;19916;-65
2023/07/01 11:56:33;;;;;;;1.60;1.15;;;;;;;22.38;49.42;99520.06;5072094;28;20127;-65
2023/07/01 11:58:59;;;;;;;1.90;1.20;;;;;;;22.40;50.47;99515.19;5071820;28;20500;-65
2023/07/01 12:01:26;;;;;;;2.00;1.20;;;;;;;22.56;50.55;99507.91;5072176;28;20031;-65
2023/07/01 12:03:55;;;;;;;2.33;1.50;;;;;;;22.66;50.54;99507.09;5072172;28;20386;-65
2023/07/01 12:06:24;;;;;;;1.25;1.00;;;;;;;22.78;50.60;99518.50;5071887;28;20037;-65
2023/07/01 12:08:50;;;;;;;2.05;1.33;;;;;;;22.80;49.75;99521.75;5071743;28;20055;-65
2023/07/01 12:11:17;;;;;;;3.03;1.30;;;;;;;22.75;49.76;99517.13;5071990;28;20623;-65
2023/07/01 12:13:42;;;;;;;2.95;1.10;;;;;;;22.53;48.75;99515.75;5071974;28;20029;-65
2023/07/01 12:16:07;;;;;;;2.45;1.77;;;;;;;22.57;48.97;99511.44;5071764;28;20035;-65
2023/07/01 12:18:33;;;;;;;2.72;1.65;;;;;;;22.58;48.56;99508.44;5071509;28;20264;-65
2023/07/01 12:20:58;;;;;;;1.38;1.02;;;;;;;22.45;48.44;99514.41;5071851;28;20036;-65
2023/07/01 12:23:24;;;;;;;3.05;1.40;;;;;;;22.48;48.93;99513.84;5071816;28;20136;-65
2023/07/01 12:25:50;;;;;;;2.45;1.45;;;;;;;22.35;49.28;99515.16;5071870;28;20036;-66
2023/07/01 12:28:18;;;;;;;1.65;1.17;;;;;;;22.46;49.67;99514.13;5071694;28;20036;-65
2023/07/01 12:30:43;;;;;;;2.08;1.45;;;;;;;22.53;50.60;99507.63;5071686;28;20037;-66
2023/07/01 12:33:09;;;;;;;3.03;1.40;;;;;;;22.55;49.00;99502.72;5071742;28;20493;-65
2023/07/01 12:35:34;;;;;;;2.50;1.55;;;;;;;22.81;49.53;99500.84;5059768;28;20124;-66
2023/07/01 12:38:02;;;;;;;2.40;1.60;;;;;;;22.95;48.53;99508.22;5051712;28;20037;-66
2023/07/01 12:40:27;;;;;;;1.67;1.23;;;;;;;22.78;48.61;99504.91;5058049;28;20518;-65
2023/07/01 12:42:53;;;;;;;3.03;1.55;;;;;;;23.05;48.29;99501.13;5073151;28;20032;-66
2023/07/01 12:45:19;;;;;;;2.65;1.08;;;;;;;22.92;47.57;99492.47;5075649;28;20421;-65
2023/07/01 12:47:44;;;;;;;2.15;1.20;;;;;;;23.32;48.69;99501.63;5075654;28;20494;-65
2023/07/01 12:50:11;;;;;;;2.45;1.25;;;;;;;23.53;49.10;99500.50;5075271;28;20044;-66
2023/07/01 12:52:36;;;;;;;2.72;1.38;;;;;;;23.47;47.81;99498.06;5075418;28;20025;-65
2023/07/01 12:55:02;;;;;;;2.10;1.40;;;;;;;23.63;48.96;99496.97;5075531;28;20564;-66
2023/07/01 12:57:28;;;;;;;2.70;1.50;;;;;;;23.64;46.89;99490.44;5075294;28;20037;-65
2023/07/01 12:59:54;;;;;;;2.03;1.27;;;;;;;23.64;47.77;99493.16;5075130;28;20484;-65
2023/07/01 13:02:22;;;;;;;1.60;1.20;;;;;;;23.38;47.51;99491.56;5075298;28;20125;-66
2023/07/01 13:05:00;;;;;;;1.63;1.30;;;;;;;23.48;48.53;99484.22;5075160;28;20040;-66
2023/07/01 13:07:27;;;;;;;1.92;1.33;;;;;;;23.18;47.66;99493.25;5075228;28;20444;-66
2023/07/01 13:09:53;;;;;;;6.18;1.50;;;;;;;23.34;50.43;99485.88;5074910;28;20039;-66
2023/07/01 13:12:25;;;;;;;1.95;1.80;;;;;;;23.39;48.52;99495.91;5075124;28;20041;-66
2023/07/01 13:14:52;;;;;;;1.65;1.10;;;;;;;23.50;49.31;99486.66;5075071;28;20043;-66
2023/07/01 13:17:36;;;;;;;2.75;1.35;;;;;;;23.60;48.35;99480.34;5074944;28;20068;-66
2023/07/01 13:20:02;;;;;;;2.00;1.40;;;;;;;23.51;48.95;99472.78;5074750;28;20028;-66
2023/07/01 13:22:28;;;;;;;3.67;1.98;;;;;;;23.46;50.07;99472.78;5074925;28;20036;-65
2023/07/01 13:24:53;;;;;;;2.17;1.10;;;;;;;23.44;49.13;99477.69;5074794;28;20562;-65
2023/07/01 13:27:19;;;;;;;1.25;0.93;;;;;;;23.64;49.51;99481.47;5074756;28;20048;-65
2023/07/01 13:29:44;;;;;;;3.50;1.45;;;;;;;23.57;49.44;99476.31;5074546;28;20040;-66
2023/07/01 13:32:10;;;;;;;1.80;1.13;;;;;;;23.32;49.46;99469.03;5074731;28;20048;-65
2023/07/01 13:34:40;;;;;;;1.60;1.15;;;;;;;23.37;50.20;99469.03;5074759;28;20035;-65
2023/07/01 13:37:07;;;;;;;1.17;1.05;;;;;;;23.31;49.86;99459.25;5074663;28;20036;-65
2023/07/01 13:39:39;;;;;;;1.50;1.13;;;;;;;23.36;50.04;99464.69;5074355;28;20029;-65
2023/07/01 13:42:05;;;;;;;2.80;1.30;;;;;;;23.53;50.19;99469.78;5074567;28;20043;-66
2023/07/01 13:44:30;;;;;;;1.83;1.35;;;;;;;23.40;50.02;99476.63;5074874;28;20048;-66
2023/07/01 13:46:55;;;;;;;1.58;1.17;;;;;;;23.18;50.13;99462.56;5074365;28;20044;-66
2023/07/01 13:49:23;;;;;;;1.45;1.10;;;;;;;23.23;50.76;99470.69;5074266;28;20047;-66
2023/07/01 13:51:49;;;;;;;2.15;1.10;;;;;;;23.18;51.54;99473.41;5074377;28;20033;-64
2023/07/01 13:54:17;;;;;;;3.70;1.20;;;;;;;23.05;51.68;99473.97;5073849;28;20509;-65
2023/07/01 13:56:43;;;;;;;1.48;1.10;;;;;;;23.00;52.17;99472.88;5074392;28;20037;-66
2023/07/01 13:59:13;;;;;;;1.73;1.00;;;;;;;22.84;52.26;99468.53;5074171;28;20044;-66
2023/07/01 14:01:39;;;;;;;2.63;1.20;;;;;;;22.75;52.59;99470.16;5074180;28;20039;-67
2023/07/01 14:04:05;;;;;;;1.20;1.00;;;;;;;22.63;53.37;99466.94;5074203;28;20040;-66
2023/07/01 14:06:31;;;;;;;1.85;1.13;;;;;;;22.41;54.53;99476.13;5074127;28;20040;-64
2023/07/01 14:08:57;;;;;;;2.13;0.90;;;;;;;22.54;55.40;99482.09;5073814;28;20029;-65
2023/07/01 14:11:28;;;;;;;3.58;1.30;;;;;;;22.46;55.63;99478.84;5074111;28;20052;-65
2023/07/01 14:13:56;;;;;;;2.20;1.02;;;;;;;22.38;56.69;99482.09;5073695;28;20135;-65
2023/07/01 14:16:24;;;;;;;0.80;0.73;;;;;;;22.19;57.71;99489.09;5073864;28;20530;-65
2023/07/01 14:18:51;;;;;;;1.73;1.00;;;;;;;22.21;59.37;99478.81;5073690;28;20170;-65
2023/07/01 14:21:16;;;;;;;1.25;1.00;;;;;;;22.06;60.24;99476.03;5073835;28;20097;-65
2023/07/01 14:23:43;;;;;;;0.73;0.70;;;;;;;21.98;59.32;99474.66;5073807;28;20032;-64
2023/07/01 14:26:14;;;;;;;1.83;0.95;;;;;;;22.04;60.51;99476.31;5073750;28;20036;-66
2023/07/01 14:28:41;;;;;;;1.95;1.35;;;;;;;21.98;61.46;99463.81;5073526;28;20064;-65
2023/07/01 14:31:09;;;;;;;1.70;1.17;;;;;;;21.85;61.44;99467.03;5055830;28;20074;-66
2023/07/01 14:33:58;;;;;;;1.58;0.75;;;;;;;21.87;61.36;99472.97;5073684;28;20078;-54
2023/07/01 14:36:31;;;;;;;1.10;1.00;;;;;;;21.86;61.95;99457.81;5073599;28;20145;-56
2023/07/01 14:38:59;;;;;;;1.35;1.00;;;;;;;21.84;63.13;99460.78;5073187;28;20123;-53
2023/07/01 14:41:30;;;;;;;1.63;1.00;;;;;;;21.87;63.74;99459.44;5073452;28;20037;-54
2023/07/01 14:43:59;;;;;;;2.33;1.10;;;;;;;21.89;63.02;99457.25;5073720;28;20599;-55
2023/07/01 14:46:28;;;;;;;1.52;1.05;;;;;;;21.98;63.39;99454.88;5073151;28;20127;-50
2023/07/01 14:48:54;;;;;;;1.23;1.08;;;;;;;22.03;62.97;99460.28;5072988;28;20037;-52
2023/07/01 14:51:19;;;;;;;0.88;0.70;;;;;;;22.05;62.27;99452.72;5073184;28;20075;-51
2023/07/01 14:53:46;;;;;;;2.58;1.15;;;;;;;22.19;63.18;99443.00;5073211;28;20074;-52
2023/07/01 14:56:16;;;;;;;1.30;1.02;;;;;;;22.26;62.59;99454.41;5073281;28;20422;-53
2023/07/01 14:58:42;;;;;;;1.10;0.90;;;;;;;22.23;61.61;99451.41;5072899;28;20085;-53
2023/07/01 15:01:07;;;;;;;1.20;1.02;;;;;;;22.17;61.58;99464.16;5073010;28;20028;-53
2023/07/01 15:03:33;;;;;;;1.00;0.90;;;;;;;22.15;62.86;99460.88;5073023;28;20036;-52
2023/07/01 15:05:59;;;;;;;0.80;0.68;;;;;;;21.92;63.45;99462.97;5072238;28;20040;-53
2023/07/01 15:08:24;;;;;;;0.95;0.73;;;;;;;21.91;63.64;99465.97;5072732;28;20453;-51
2023/07/01 15:10:50;;;;;;;1.95;1.00;;;;;;;21.93;65.59;99470.03;5072703;28;20063;-53
2023/07/01 15:13:15;;;;;;;1.23;0.85;;;;;;;21.87;64.14;99460.25;5072862;28;20041;-55
2023/07/01 15:15:41;;;;;;;2.70;1.30;;;;;;;21.66;65.26;99459.34;5072565;28;20032;-56
2023/07/01 15:18:06;;;;;;;1.23;0.90;;;;;;;21.54;65.56;99457.94;5072797;28;20068;-52
2023/07/01 15:20:32;;;;;;;1.98;0.98;;;;;;;21.54;65.78;99452.53;5072421;28;20045;-56
2023/07/01 15:22:58;;;;;;;2.28;1.08;;;;;;;21.49;65.41;99461.44;5072424;28;20032;-53
2023/07/01 15:25:24;;;;;;;2.38;0.90;;;;;;;21.47;66.85;99447.34;5072579;28;20039;-56
2023/07/01 15:27:49;;;;;;;1.92;1.13;;;;;;;21.57;66.31;99443.84;5072616;28;20401;-59
2023/07/01 15:30:14;;;;;;;1.50;1.00;;;;;;;21.71;65.84;99446.88;5072152;28;20474;-54
2023/07/01 15:32:40;;;;;;;1.30;1.13;;;;;;;21.70;64.23;99446.06;5072385;28;20076;-57
2023/07/01 15:35:06;;;;;;;1.38;0.95;;;;;;;21.76;64.86;99445.03;5072576;28;20040;-56
2023/07/01 15:37:32;;;;;;;1.20;0.82;;;;;;;21.89;65.55;99441.00;5072563;28;20066;-57
2023/07/01 15:39:58;;;;;;;1.27;1.00;;;;;;;22.05;65.10;99447.28;5072049;28;20029;-57
2023/07/01 15:42:24;;;;;;;0.95;0.90;;;;;;;22.09;64.54;99440.25;5072462;28;20524;-57
2023/07/01 15:44:49;;;;;;;1.30;0.90;;;;;;;22.16;64.49;99446.22;5072218;28;20093;-59
2023/07/01 15:47:15;;;;;;;1.20;0.90;;;;;;;21.95;64.94;99443.44;5072233;28;20597;-64
2023/07/01 15:49:41;;;;;;;2.90;1.10;;;;;;;22.06;66.26;99447.00;5072094;28;20631;-65
2023/07/01 15:52:07;;;;;;;1.20;0.77;;;;;;;21.99;65.11;99445.66;5054176;28;20127;-66
2023/07/01 15:54:32;;;;;;;1.05;0.80;;;;;;;22.07;64.61;99442.41;5072232;28;20037;-66
2023/07/01 15:56:57;;;;;;;2.05;1.10;;;;;;;22.08;64.82;99444.03;5071957;28;20374;-65